Time;durP1;ratioP1;P1;durP2;ratioP2;P2;SDS_P1;SDS_P2;PMS_P1;PMS_P2;Temp;Humidity;BMP_temperature;BMP_pressure;BME280_temperature;BME280_humidity;BME280_pressure;Samples;Min_cycle;Max_cycle;Signal;HPM_P1;HPM_P2
2024/02/20 00:01:50;;;;;;;1.88;1.33;;;;;;;;;;5052512;28;20110;-78
2024/02/20 00:04:19;;;;;;;1.23;1.08;;;;;;;;;;5036479;28;20042;-79
2024/02/20 00:06:45;;;;;;;1.38;1.10;;;;;;;;;;5035504;28;20014;-77
2024/02/20 00:09:12;;;;;;;1.77;0.90;;;;;;;;;;5058087;28;20048;-78
2024/02/20 00:11:39;;;;;;;1.00;0.90;;;;;;;;;;5027117;28;20077;-77
2024/02/20 00:14:05;;;;;;;0.82;0.82;;;;;;;;;;5024376;28;20060;-77
2024/02/20 00:16:31;;;;;;;1.48;0.90;;;;;;;;;;5036661;28;20034;-78
2024/02/20 00:18:57;;;;;;;3.05;1.13;;;;;;;;;;5031960;28;20129;-78
2024/02/20 00:21:24;;;;;;;0.73;0.73;;;;;;;;;;5019088;28;20026;-76
2024/02/20 00:23:51;;;;;;;1.73;0.88;;;;;;;;;;5016660;28;20018;-77
2024/02/20 00:26:18;;;;;;;0.60;0.60;;;;;;;;;;5030330;28;20037;-78
2024/02/20 00:28:44;;;;;;;1.98;1.30;;;;;;;;;;5024448;28;20036;-77
2024/02/20 00:31:11;;;;;;;2.15;1.20;;;;;;;;;;5032307;28;20056;-78
2024/02/20 00:33:37;;;;;;;3.13;1.02;;;;;;;;;;5018510;28;20018;-77
2024/02/20 00:36:05;;;;;;;1.98;0.95;;;;;;;;;;5018619;28;20026;-78
2024/02/20 00:38:31;;;;;;;1.00;0.80;;;;;;;;;;5025784;28;20025;-78
2024/02/20 00:40:57;;;;;;;1.65;0.95;;;;;;;;;;5030365;28;20506;-78
2024/02/20 00:43:23;;;;;;;1.83;1.00;;;;;;;;;;5023998;28;20018;-79
2024/02/20 00:45:50;;;;;;;2.47;1.33;;;;;;;;;;5018678;28;20029;-78
2024/02/20 00:48:16;;;;;;;2.80;0.95;;;;;;;;;;5024500;28;20048;-79
2024/02/20 00:50:42;;;;;;;3.03;1.08;;;;;;;;;;5019140;28;20026;-77
2024/02/20 00:53:09;;;;;;;1.73;1.23;;;;;;;;;;5016186;28;20029;-78
2024/02/20 00:55:35;;;;;;;2.95;1.85;;;;;;;;;;5016491;28;20104;-78
2024/02/20 00:58:01;;;;;;;5.38;1.90;;;;;;;;;;5017130;28;20025;-77
2024/02/20 01:00:28;;;;;;;2.58;1.50;;;;;;;;;;5017311;28;20034;-80
2024/02/20 01:02:54;;;;;;;4.75;1.30;;;;;;;;;;5017433;28;20026;-77
2024/02/20 01:05:20;;;;;;;3.65;1.50;;;;;;;;;;5018708;28;20596;-78
2024/02/20 01:07:46;;;;;;;4.90;1.80;;;;;;;;;;5017353;28;20065;-78
2024/02/20 01:10:12;;;;;;;1.88;1.30;;;;;;;;;;5017483;28;20036;-77
2024/02/20 01:12:38;;;;;;;3.25;1.45;;;;;;;;;;5022832;28;20038;-78
2024/02/20 01:15:05;;;;;;;1.30;1.20;;;;;;;;;;5032255;28;20071;-77
2024/02/20 01:17:32;;;;;;;1.65;1.15;;;;;;;;;;5055597;28;20033;-78
2024/02/20 01:19:58;;;;;;;2.17;1.25;;;;;;;;;;5026804;28;20037;-78
2024/02/20 01:22:25;;;;;;;2.35;1.20;;;;;;;;;;5020113;28;20085;-78
2024/02/20 01:24:51;;;;;;;1.83;1.40;;;;;;;;;;5019444;28;20180;-79
2024/02/20 01:27:17;;;;;;;4.30;1.30;;;;;;;;;;5021383;28;20030;-77
2024/02/20 01:29:46;;;;;;;1.85;1.17;;;;;;;;;;5016643;28;20022;-78
2024/02/20 01:32:13;;;;;;;2.00;1.05;;;;;;;;;;5020329;28;20097;-77
2024/02/20 01:34:39;;;;;;;3.38;1.17;;;;;;;;;;5017929;28;20042;-79
2024/02/20 01:37:05;;;;;;;1.95;1.00;;;;;;;;;;5016876;28;20400;-78
2024/02/20 01:39:32;;;;;;;1.10;0.98;;;;;;;;;;5019195;28;20034;-78
2024/02/20 01:41:58;;;;;;;1.13;1.00;;;;;;;;;;5020483;28;20445;-77
2024/02/20 01:44:33;;;;;;;1.33;1.00;;;;;;;;;;5018564;28;20034;-77
2024/02/20 01:47:01;;;;;;;1.65;1.00;;;;;;;;;;5036065;28;20057;-78
2024/02/20 01:49:28;;;;;;;1.05;0.90;;;;;;;;;;5039786;28;20027;-78
2024/02/20 01:51:55;;;;;;;1.10;0.77;;;;;;;;;;5026475;28;20026;-78
2024/02/20 01:54:22;;;;;;;0.98;0.80;;;;;;;;;;5025738;28;20084;-77
2024/02/20 01:56:49;;;;;;;0.57;0.57;;;;;;;;;;5043687;28;20040;-78
2024/02/20 01:59:16;;;;;;;0.80;0.65;;;;;;;;;;5021589;28;20034;-78
2024/02/20 02:01:42;;;;;;;1.35;0.82;;;;;;;;;;5027145;28;20082;-78
2024/02/20 02:04:08;;;;;;;0.75;0.75;;;;;;;;;;5017294;28;20040;-76
2024/02/20 02:06:37;;;;;;;2.05;0.80;;;;;;;;;;5030572;28;20030;-78
2024/02/20 02:09:04;;;;;;;0.52;0.52;;;;;;;;;;5015743;28;20029;-77
2024/02/20 02:11:30;;;;;;;0.60;0.60;;;;;;;;;;5017315;28;20156;-77
2024/02/20 02:13:56;;;;;;;1.15;0.60;;;;;;;;;;5016372;28;20029;-77
2024/02/20 02:16:22;;;;;;;0.68;0.65;;;;;;;;;;5020885;28;20026;-78
2024/02/20 02:18:49;;;;;;;0.65;0.65;;;;;;;;;;5027725;28;20030;-77
2024/02/20 02:21:15;;;;;;;0.80;0.80;;;;;;;;;;5004214;28;20133;-77
2024/02/20 02:23:42;;;;;;;1.50;0.63;;;;;;;;;;5016841;28;20432;-77
2024/02/20 02:26:13;;;;;;;0.80;0.63;;;;;;;;;;5015036;28;20026;-77
2024/02/20 02:28:39;;;;;;;0.68;0.52;;;;;;;;;;5015656;28;20026;-77
2024/02/20 02:31:08;;;;;;;0.82;0.70;;;;;;;;;;5015860;28;20041;-78
2024/02/20 02:33:34;;;;;;;0.20;0.20;;;;;;;;;;5017187;28;20041;-78
2024/02/20 02:36:01;;;;;;;0.40;0.35;;;;;;;;;;5015998;28;20400;-77
2024/02/20 02:38:27;;;;;;;0.80;0.40;;;;;;;;;;5025478;28;20026;-78
2024/02/20 02:40:53;;;;;;;1.02;0.65;;;;;;;;;;5034074;28;20030;-78
2024/02/20 02:43:19;;;;;;;0.88;0.50;;;;;;;;;;5041335;28;20101;-77
2024/02/20 02:45:45;;;;;;;0.35;0.30;;;;;;;;;;5027043;28;20033;-77
2024/02/20 02:48:12;;;;;;;0.77;0.20;;;;;;;;;;5014490;28;20026;-77
2024/02/20 02:50:38;;;;;;;0.28;0.28;;;;;;;;;;5016798;28;20018;-77
2024/02/20 02:53:04;;;;;;;0.75;0.32;;;;;;;;;;5016408;28;20025;-78
2024/02/20 02:55:30;;;;;;;0.32;0.32;;;;;;;;;;5015488;28;20029;-77
2024/02/20 02:57:56;;;;;;;0.50;0.50;;;;;;;;;;5013112;28;20028;-77
2024/02/20 03:00:22;;;;;;;0.47;0.40;;;;;;;;;;5033842;28;20051;-78
2024/02/20 03:02:48;;;;;;;0.68;0.40;;;;;;;;;;5023049;28;20033;-78
2024/02/20 03:05:18;;;;;;;0.73;0.30;;;;;;;;;;5022428;28;20076;-78
2024/02/20 03:07:44;;;;;;;0.43;0.43;;;;;;;;;;5007297;28;20029;-78
2024/02/20 03:10:11;;;;;;;0.50;0.40;;;;;;;;;;5017381;28;20029;-77
2024/02/20 03:12:38;;;;;;;0.55;0.45;;;;;;;;;;5015934;28;20076;-78
2024/02/20 03:15:04;;;;;;;0.30;0.30;;;;;;;;;;5014695;28;20068;-77
2024/02/20 03:17:30;;;;;;;0.30;0.30;;;;;;;;;;5022401;28;20025;-76
2024/02/20 03:19:59;;;;;;;0.30;0.25;;;;;;;;;;5016512;28;20040;-78
2024/02/20 03:22:26;;;;;;;1.88;0.75;;;;;;;;;;5019189;28;20052;-78
2024/02/20 03:24:52;;;;;;;3.25;0.68;;;;;;;;;;5014638;28;20030;-78
2024/02/20 03:27:18;;;;;;;1.42;0.50;;;;;;;;;;5014335;28;20026;-77
2024/02/20 03:29:45;;;;;;;0.52;0.52;;;;;;;;;;5015627;28;20057;-77
2024/02/20 03:32:11;;;;;;;1.48;0.50;;;;;;;;;;5015679;28;20025;-77
2024/02/20 03:34:37;;;;;;;1.15;0.47;;;;;;;;;;5015050;28;20056;-77
2024/02/20 03:37:04;;;;;;;1.00;0.70;;;;;;;;;;5025995;28;20030;-78
2024/02/20 03:39:30;;;;;;;1.55;0.50;;;;;;;;;;5012171;28;20184;-77
2024/02/20 03:41:56;;;;;;;1.05;0.28;;;;;;;;;;5014539;28;20026;-77
2024/02/20 03:44:23;;;;;;;0.30;0.30;;;;;;;;;;5014485;28;20034;-77
2024/02/20 03:46:49;;;;;;;0.47;0.40;;;;;;;;;;5014194;28;20040;-77
2024/02/20 03:49:15;;;;;;;1.95;0.50;;;;;;;;;;5032062;28;20162;-78
2024/02/20 03:51:44;;;;;;;1.13;0.70;;;;;;;;;;5014611;28;20022;-77
2024/02/20 03:54:10;;;;;;;0.30;0.30;;;;;;;;;;5015024;28;20044;-77
2024/02/20 03:56:36;;;;;;;0.95;0.50;;;;;;;;;;5013453;28;20100;-77
2024/02/20 03:59:02;;;;;;;1.00;0.60;;;;;;;;;;5015315;28;20362;-76
2024/02/20 04:01:28;;;;;;;1.65;0.93;;;;;;;;;;5014769;28;20026;-77
2024/02/20 04:03:54;;;;;;;2.78;0.98;;;;;;;;;;5027124;28;20038;-77
2024/02/20 04:06:20;;;;;;;1.27;0.90;;;;;;;;;;5011343;28;20041;-77
2024/02/20 04:08:46;;;;;;;1.08;0.98;;;;;;;;;;5014930;28;20033;-78
2024/02/20 04:11:12;;;;;;;1.33;1.00;;;;;;;;;;5018954;28;20370;-77
2024/02/20 04:13:39;;;;;;;1.65;1.13;;;;;;;;;;5017100;28;20109;-77
2024/02/20 04:16:05;;;;;;;1.75;1.40;;;;;;;;;;5016458;28;20029;-77
2024/02/20 04:18:31;;;;;;;0.82;0.82;;;;;;;;;;5016086;28;20038;-78
2024/02/20 04:20:57;;;;;;;0.60;0.60;;;;;;;;;;5016571;28;20072;-77
2024/02/20 04:23:24;;;;;;;0.82;0.73;;;;;;;;;;5015998;28;20022;-77
2024/02/20 04:25:50;;;;;;;1.15;1.02;;;;;;;;;;5024092;28;20017;-77
2024/02/20 04:28:16;;;;;;;1.08;0.82;;;;;;;;;;5051017;28;20109;-77
2024/02/20 04:30:44;;;;;;;1.73;1.00;;;;;;;;;;5038732;28;20025;-77
2024/02/20 04:33:11;;;;;;;2.03;1.30;;;;;;;;;;5022497;28;20018;-77
2024/02/20 04:35:38;;;;;;;2.22;1.52;;;;;;;;;;5020505;28;20025;-77
2024/02/20 04:38:04;;;;;;;2.72;1.70;;;;;;;;;;5032937;28;20031;-77
2024/02/20 04:40:30;;;;;;;2.13;1.40;;;;;;;;;;5014524;28;20084;-77
2024/02/20 04:42:56;;;;;;;2.35;1.70;;;;;;;;;;5013323;28;20026;-77
2024/02/20 04:45:22;;;;;;;4.30;1.80;;;;;;;;;;5013905;28;20530;-77
2024/02/20 04:47:48;;;;;;;2.97;1.50;;;;;;;;;;5035638;28;20055;-77
2024/02/20 04:50:19;;;;;;;1.77;1.33;;;;;;;;;;5013314;28;20081;-77
2024/02/20 04:52:45;;;;;;;1.10;1.00;;;;;;;;;;5017111;28;20025;-77
2024/02/20 04:55:11;;;;;;;0.90;0.90;;;;;;;;;;5017970;28;20026;-77
2024/02/20 04:57:37;;;;;;;2.35;1.65;;;;;;;;;;5012748;28;20050;-78
2024/02/20 05:00:10;;;;;;;2.10;1.20;;;;;;;;;;5014004;28;20030;-77
2024/02/20 05:02:37;;;;;;;1.00;0.90;;;;;;;;;;5013623;28;20500;-77
2024/02/20 05:05:03;;;;;;;1.50;1.40;;;;;;;;;;5014336;28;20110;-78
2024/02/20 05:07:29;;;;;;;2.67;1.25;;;;;;;;;;5016227;28;20030;-76
2024/02/20 05:09:55;;;;;;;1.85;1.35;;;;;;;;;;5016019;28;20073;-77
2024/02/20 05:12:22;;;;;;;1.45;1.15;;;;;;;;;;5014322;28;20370;-77
2024/02/20 05:14:48;;;;;;;3.05;1.60;;;;;;;;;;5017480;28;20018;-78
2024/02/20 05:17:15;;;;;;;2.47;1.52;;;;;;;;;;5015496;28;20369;-76
2024/02/20 05:19:41;;;;;;;1.60;1.50;;;;;;;;;;5016714;28;20523;-78
2024/02/20 05:22:07;;;;;;;1.80;1.58;;;;;;;;;;5038704;28;20089;-78
2024/02/20 05:24:36;;;;;;;2.35;1.50;;;;;;;;;;5017526;28;20026;-77
2024/02/20 05:27:03;;;;;;;2.33;1.58;;;;;;;;;;5028973;28;20087;-78
2024/02/20 05:29:32;;;;;;;2.15;1.67;;;;;;;;;;5015627;28;20030;-77
2024/02/20 05:31:58;;;;;;;3.75;1.80;;;;;;;;;;5013801;28;20029;-77
2024/02/20 05:34:24;;;;;;;2.47;2.03;;;;;;;;;;5013915;28;20420;-78
2024/02/20 05:36:50;;;;;;;3.50;2.08;;;;;;;;;;5019870;28;20026;-78
2024/02/20 05:39:18;;;;;;;2.13;1.92;;;;;;;;;;5037363;28;20030;-78
2024/02/20 05:41:44;;;;;;;3.05;1.88;;;;;;;;;;5017096;28;20041;-76
2024/02/20 05:44:10;;;;;;;2.28;1.77;;;;;;;;;;5031655;28;20030;-77
2024/02/20 05:46:37;;;;;;;2.25;1.88;;;;;;;;;;5013843;28;20048;-78
2024/02/20 05:49:06;;;;;;;2.78;2.33;;;;;;;;;;5015030;28;20061;-77
2024/02/20 05:51:32;;;;;;;4.95;3.13;;;;;;;;;;5015051;28;20018;-77
2024/02/20 05:53:59;;;;;;;5.38;2.88;;;;;;;;;;5018788;28;20025;-77
2024/02/20 05:56:25;;;;;;;2.90;2.53;;;;;;;;;;5038427;28;20048;-77
2024/02/20 05:58:51;;;;;;;4.82;3.08;;;;;;;;;;5026578;28;20105;-78
2024/02/20 06:01:18;;;;;;;3.45;2.80;;;;;;;;;;5028157;28;20033;-77
2024/02/20 06:03:44;;;;;;;5.07;3.38;;;;;;;;;;5024865;28;20034;-78
2024/02/20 06:06:11;;;;;;;6.75;3.13;;;;;;;;;;5026613;28;20053;-77
2024/02/20 06:08:44;;;;;;;3.75;2.80;;;;;;;;;;5012913;28;20033;-77
2024/02/20 06:11:14;;;;;;;5.30;3.20;;;;;;;;;;5020705;28;20026;-78
2024/02/20 06:13:41;;;;;;;6.47;3.53;;;;;;;;;;5022212;28;20513;-78
2024/02/20 06:16:07;;;;;;;6.00;2.97;;;;;;;;;;5027553;28;20029;-79
2024/02/20 06:18:33;;;;;;;4.20;3.22;;;;;;;;;;5017464;28;20034;-78
2024/02/20 06:20:59;;;;;;;5.20;3.25;;;;;;;;;;5020995;28;20088;-76
2024/02/20 06:23:25;;;;;;;5.85;3.20;;;;;;;;;;5021057;28;20064;-77
2024/02/20 06:25:51;;;;;;;6.05;3.10;;;;;;;;;;5034991;28;20108;-79
2024/02/20 06:28:19;;;;;;;5.70;2.92;;;;;;;;;;5021535;28;20396;-77
2024/02/20 06:30:47;;;;;;;7.07;3.55;;;;;;;;;;5020776;28;20013;-78
2024/02/20 06:33:13;;;;;;;5.72;3.42;;;;;;;;;;5026074;28;20025;-78
2024/02/20 06:35:41;;;;;;;5.30;2.95;;;;;;;;;;5024633;28;20026;-79
2024/02/20 06:38:07;;;;;;;3.45;3.05;;;;;;;;;;5019628;28;20046;-77
2024/02/20 06:40:33;;;;;;;4.40;3.03;;;;;;;;;;5036598;28;20037;-78
2024/02/20 06:42:59;;;;;;;5.30;3.58;;;;;;;;;;5032009;28;20032;-78
2024/02/20 06:45:27;;;;;;;5.10;3.33;;;;;;;;;;5024197;28;20029;-78
2024/02/20 06:47:54;;;;;;;5.85;3.38;;;;;;;;;;5022051;28;20396;-78
2024/02/20 06:50:20;;;;;;;4.43;1.60;;;;;;;;;;5025144;28;20045;-78
2024/02/20 06:52:46;;;;;;;3.03;1.35;;;;;;;;;;5023867;28;20050;-78
2024/02/20 06:55:13;;;;;;;2.50;1.00;;;;;;;;;;5034672;28;20140;-79
2024/02/20 06:57:39;;;;;;;2.47;1.05;;;;;;;;;;5016810;28;20034;-78
2024/02/20 07:00:11;;;;;;;1.50;0.93;;;;;;;;;;5020138;28;20029;-78
2024/02/20 07:02:37;;;;;;;1.45;0.77;;;;;;;;;;5050184;28;20471;-78
2024/02/20 07:05:04;;;;;;;2.78;0.88;;;;;;;;;;5024478;28;20034;-77
2024/02/20 07:07:30;;;;;;;2.55;1.00;;;;;;;;;;5022036;28;20036;-77
2024/02/20 07:09:56;;;;;;;2.50;1.10;;;;;;;;;;5017389;28;20037;-78
2024/02/20 07:12:23;;;;;;;3.83;1.35;;;;;;;;;;5020333;28;20433;-77
2024/02/20 07:14:49;;;;;;;2.17;1.42;;;;;;;;;;5033690;28;20484;-77
2024/02/20 07:17:15;;;;;;;2.75;1.50;;;;;;;;;;5029003;28;20025;-78
2024/02/20 07:19:41;;;;;;;3.00;1.45;;;;;;;;;;5020728;28;20396;-78
2024/02/20 07:22:08;;;;;;;2.88;2.25;;;;;;;;;;5022126;28;20053;-77
2024/02/20 07:24:34;;;;;;;3.80;2.22;;;;;;;;;;5030466;28;20080;-77
2024/02/20 07:27:00;;;;;;;4.43;2.60;;;;;;;;;;5018408;28;20033;-77
2024/02/20 07:29:26;;;;;;;3.83;2.13;;;;;;;;;;5033577;28;20057;-77
2024/02/20 07:31:52;;;;;;;3.38;2.28;;;;;;;;;;5017378;28;20365;-78
2024/02/20 07:34:18;;;;;;;6.30;2.42;;;;;;;;;;5016402;28;20025;-78
2024/02/20 07:36:48;;;;;;;7.53;2.50;;;;;;;;;;5014526;28;20022;-77
2024/02/20 07:39:14;;;;;;;4.97;2.70;;;;;;;;;;5017905;28;20026;-79
2024/02/20 07:41:41;;;;;;;5.57;2.10;;;;;;;;;;5041331;28;20040;-79
2024/02/20 07:44:07;;;;;;;4.10;2.63;;;;;;;;;;5022636;28;20088;-77
2024/02/20 07:46:33;;;;;;;6.82;3.95;;;;;;;;;;5021252;28;20034;-77
2024/02/20 07:49:00;;;;;;;6.75;3.65;;;;;;;;;;5017900;28;20025;-77
2024/02/20 07:51:26;;;;;;;5.10;2.67;;;;;;;;;;5017167;28;20018;-77
2024/02/20 07:53:52;;;;;;;7.65;3.00;;;;;;;;;;5017520;28;20018;-78
2024/02/20 07:56:27;;;;;;;4.35;3.30;;;;;;;;;;5031688;28;20042;-78
2024/02/20 07:58:53;;;;;;;4.43;2.50;;;;;;;;;;5029624;28;20034;-77
2024/02/20 08:01:19;;;;;;;5.65;3.38;;;;;;;;;;5037404;28;20040;-77
2024/02/20 08:03:48;;;;;;;11.23;4.35;;;;;;;;;;5037645;28;20040;-78
2024/02/20 08:06:14;;;;;;;4.70;3.30;;;;;;;;;;5037301;28;20009;-78
2024/02/20 08:08:41;;;;;;;3.38;2.00;;;;;;;;;;5037047;28;20048;-78
2024/02/20 08:11:08;;;;;;;5.45;2.20;;;;;;;;;;5037222;28;20020;-77
2024/02/20 08:13:34;;;;;;;6.35;2.90;;;;;;;;;;5053159;28;20024;-77
2024/02/20 08:16:01;;;;;;;3.03;2.40;;;;;;;;;;5036671;28;20026;-77
2024/02/20 08:18:28;;;;;;;4.18;2.20;;;;;;;;;;5036466;28;20009;-77
2024/02/20 08:20:54;;;;;;;5.45;2.28;;;;;;;;;;5020454;28;20030;-77
2024/02/20 08:23:20;;;;;;;6.00;2.50;;;;;;;;;;5023489;28;20026;-78
2024/02/20 08:25:46;;;;;;;4.60;2.15;;;;;;;;;;5020455;28;20037;-77
2024/02/20 08:28:12;;;;;;;9.50;3.45;;;;;;;;;;5027577;28;20391;-78
2024/02/20 08:30:38;;;;;;;8.63;3.33;;;;;;;;;;5022462;28;20026;-77
2024/02/20 08:33:06;;;;;;;8.05;2.60;;;;;;;;;;5034847;28;20088;-78
2024/02/20 08:35:32;;;;;;;8.48;3.13;;;;;;;;;;5017403;28;20121;-78
2024/02/20 08:37:59;;;;;;;5.55;2.83;;;;;;;;;;5015281;28;20025;-78
2024/02/20 08:40:25;;;;;;;5.00;3.05;;;;;;;;;;5038191;28;20116;-78
2024/02/20 08:42:51;;;;;;;5.22;2.22;;;;;;;;;;5022786;28;20041;-78
2024/02/20 08:45:19;;;;;;;7.55;2.50;;;;;;;;;;5020264;28;20018;-78
2024/02/20 08:47:45;;;;;;;6.68;3.08;;;;;;;;;;5038687;28;20061;-78
2024/02/20 08:50:16;;;;;;;5.18;2.15;;;;;;;;;;5034711;28;20026;-78
2024/02/20 08:52:42;;;;;;;6.90;2.78;;;;;;;;;;5036324;28;20018;-78
2024/02/20 08:55:08;;;;;;;12.35;3.22;;;;;;;;;;5018739;28;20022;-78
2024/02/20 08:57:34;;;;;;;8.90;2.85;;;;;;;;;;5018205;28;20025;-77
2024/02/20 09:00:00;;;;;;;5.70;2.40;;;;;;;;;;5015473;28;20030;-78
2024/02/20 09:02:26;;;;;;;6.50;2.30;;;;;;;;;;5017642;28;20499;-78
2024/02/20 09:04:52;;;;;;;16.25;2.97;;;;;;;;;;5022199;28;20044;-78
2024/02/20 09:07:19;;;;;;;8.98;2.50;;;;;;;;;;5021520;28;20129;-78
2024/02/20 09:09:45;;;;;;;8.77;3.15;;;;;;;;;;5017557;28;20026;-78
2024/02/20 09:12:11;;;;;;;7.63;2.40;;;;;;;;;;5016037;28;20018;-77
2024/02/20 09:14:37;;;;;;;5.72;2.10;;;;;;;;;;5017621;28;20025;-79
2024/02/20 09:17:03;;;;;;;10.60;2.42;;;;;;;;;;5024786;28;20014;-78
2024/02/20 09:19:30;;;;;;;6.70;2.03;;;;;;;;;;5017418;28;20021;-78
2024/02/20 09:21:56;;;;;;;7.47;2.08;;;;;;;;;;5019086;28;20036;-78
2024/02/20 09:24:22;;;;;;;9.25;2.92;;;;;;;;;;5019184;28;20085;-77
2024/02/20 09:26:48;;;;;;;7.22;2.42;;;;;;;;;;5022026;28;20078;-78
2024/02/20 09:29:14;;;;;;;12.65;2.72;;;;;;;;;;5021811;28;20060;-77
2024/02/20 09:31:40;;;;;;;8.25;2.60;;;;;;;;;;5023564;28;20124;-78
2024/02/20 09:34:06;;;;;;;8.52;2.60;;;;;;;;;;5017493;28;20432;-78
2024/02/20 09:36:32;;;;;;;7.82;2.90;;;;;;;;;;5033091;28;20500;-78
2024/02/20 09:38:58;;;;;;;7.60;2.40;;;;;;;;;;5021676;28;20026;-78
2024/02/20 09:41:25;;;;;;;9.25;3.28;;;;;;;;;;5022324;28;20029;-78
2024/02/20 09:43:52;;;;;;;8.10;3.15;;;;;;;;;;5017850;28;20022;-78
2024/02/20 09:46:19;;;;;;;8.25;2.08;;;;;;;;;;5016276;28;20026;-77
2024/02/20 09:48:52;;;;;;;10.18;2.60;;;;;;;;;;5018225;28;20034;-78
2024/02/20 09:51:20;;;;;;;5.65;2.10;;;;;;;;;;5018456;28;20065;-78
2024/02/20 09:53:46;;;;;;;7.97;2.85;;;;;;;;;;5017446;28;20389;-78
2024/02/20 09:56:15;;;;;;;10.43;2.53;;;;;;;;;;5022852;28;20086;-77
2024/02/20 09:58:41;;;;;;;8.30;2.55;;;;;;;;;;5016536;28;20043;-78
2024/02/20 10:01:08;;;;;;;8.95;2.70;;;;;;;;;;5029729;28;20577;-78
2024/02/20 10:03:38;;;;;;;11.35;2.90;;;;;;;;;;5038089;28;20026;-77
2024/02/20 10:06:06;;;;;;;8.20;2.42;;;;;;;;;;5039241;28;20042;-78
2024/02/20 10:08:32;;;;;;;8.32;2.75;;;;;;;;;;5025979;28;20030;-78
2024/02/20 10:10:58;;;;;;;11.55;2.65;;;;;;;;;;5026475;28;20014;-78
2024/02/20 10:13:25;;;;;;;9.32;2.72;;;;;;;;;;5029489;28;20018;-78
2024/02/20 10:16:01;;;;;;;9.27;2.28;;;;;;;;;;5025530;28;20037;-78
2024/02/20 10:18:28;;;;;;;7.40;1.90;;;;;;;;;;5024538;28;20018;-78
2024/02/20 10:21:01;;;;;;;6.60;2.22;;;;;;;;;;5028352;28;20026;-78
2024/02/20 10:23:27;;;;;;;9.00;2.85;;;;;;;;;;5018764;28;20049;-77
2024/02/20 10:25:57;;;;;;;8.98;2.55;;;;;;;;;;5035048;28;20025;-78
2024/02/20 10:28:23;;;;;;;6.63;2.30;;;;;;;;;;5027424;28;20026;-79
2024/02/20 10:30:49;;;;;;;9.55;2.00;;;;;;;;;;5032859;28;20107;-78
2024/02/20 10:33:16;;;;;;;5.18;2.00;;;;;;;;;;5020922;28;20026;-77
2024/02/20 10:35:42;;;;;;;5.47;1.75;;;;;;;;;;5035817;28;20010;-78
2024/02/20 10:38:11;;;;;;;12.13;2.83;;;;;;;;;;5025855;28;20010;-78
2024/02/20 10:40:37;;;;;;;12.35;2.53;;;;;;;;;;5034091;28;20018;-77
2024/02/20 10:43:06;;;;;;;7.82;2.38;;;;;;;;;;5030772;28;20061;-78
2024/02/20 10:45:32;;;;;;;9.15;2.88;;;;;;;;;;5024558;28;20068;-78
2024/02/20 10:48:02;;;;;;;11.95;3.10;;;;;;;;;;5025160;28;20089;-78
2024/02/20 10:50:31;;;;;;;6.45;2.40;;;;;;;;;;5029094;28;20037;-78
2024/02/20 10:53:00;;;;;;;9.45;2.40;;;;;;;;;;5019688;28;20100;-77
2024/02/20 10:55:29;;;;;;;8.25;2.20;;;;;;;;;;5020296;28;20030;-77
2024/02/20 10:57:55;;;;;;;7.15;1.98;;;;;;;;;;5020415;28;20025;-78
2024/02/20 11:00:22;;;;;;;9.55;2.08;;;;;;;;;;5037900;28;20485;-78
2024/02/20 11:02:49;;;;;;;7.32;2.33;;;;;;;;;;5025378;28;20026;-79
2024/02/20 11:05:16;;;;;;;6.70;2.20;;;;;;;;;;5029603;28;20062;-78
2024/02/20 11:07:46;;;;;;;9.23;2.28;;;;;;;;;;5040057;28;20049;-77
2024/02/20 11:10:15;;;;;;;8.98;2.53;;;;;;;;;;5033149;28;20026;-78
2024/02/20 11:12:41;;;;;;;11.40;2.88;;;;;;;;;;5031926;28;20113;-79
2024/02/20 11:15:19;;;;;;;6.97;2.47;;;;;;;;;;5030204;28;20022;-80
2024/02/20 11:17:46;;;;;;;8.50;2.47;;;;;;;;;;5027052;28;20505;-79
2024/02/20 11:20:23;;;;;;;10.82;2.63;;;;;;;;;;5021729;28;20033;-79
2024/02/20 11:22:49;;;;;;;6.88;2.25;;;;;;;;;;5026011;28;20117;-77
2024/02/20 11:25:16;;;;;;;6.95;2.00;;;;;;;;;;5030900;28;20026;-78
2024/02/20 11:27:46;;;;;;;8.85;2.10;;;;;;;;;;5057480;28;20018;-79
2024/02/20 11:30:13;;;;;;;9.18;2.65;;;;;;;;;;5053746;28;20065;-78
2024/02/20 11:32:39;;;;;;;8.15;2.38;;;;;;;;;;5037894;28;20045;-78
2024/02/20 11:35:18;;;;;;;12.57;2.28;;;;;;;;;;5038046;28;20022;-78
2024/02/20 11:37:48;;;;;;;5.43;1.80;;;;;;;;;;5037144;28;20029;-78
2024/02/20 11:40:33;;;;;;;10.70;2.75;;;;;;;;;;5038258;28;20081;-77
2024/02/20 11:43:00;;;;;;;6.15;1.83;;;;;;;;;;5052094;28;20054;-79
2024/02/20 11:45:29;;;;;;;3.38;1.30;;;;;;;;;;5024484;28;20029;-78
2024/02/20 11:48:04;;;;;;;7.95;2.05;;;;;;;;;;5034064;28;20041;-77
2024/02/20 11:50:32;;;;;;;8.77;2.00;;;;;;;;;;5025132;28;20038;-78
2024/02/20 11:53:04;;;;;;;6.90;1.92;;;;;;;;;;5027255;28;20014;-78
2024/02/20 11:55:32;;;;;;;7.50;1.80;;;;;;;;;;5024622;28;20022;-77
2024/02/20 11:57:58;;;;;;;5.57;1.80;;;;;;;;;;5025798;28;20022;-78
2024/02/20 12:00:26;;;;;;;4.20;1.50;;;;;;;;;;5028950;28;20060;-78
2024/02/20 12:02:53;;;;;;;5.70;2.33;;;;;;;;;;5031549;28;20017;-78
2024/02/20 12:05:24;;;;;;;5.18;1.35;;;;;;;;;;5024717;28;20512;-78
2024/02/20 12:07:50;;;;;;;5.65;1.42;;;;;;;;;;5024982;28;20037;-78
2024/02/20 12:10:17;;;;;;;3.00;1.27;;;;;;;;;;5019465;28;20022;-78
2024/02/20 12:12:44;;;;;;;7.38;1.50;;;;;;;;;;5018792;28;20029;-78
2024/02/20 12:15:13;;;;;;;2.72;1.00;;;;;;;;;;5021953;28;20025;-78
2024/02/20 12:17:42;;;;;;;5.05;1.63;;;;;;;;;;5033194;28;20042;-79
2024/02/20 12:20:10;;;;;;;8.27;2.28;;;;;;;;;;5015675;28;20057;-78
2024/02/20 12:22:37;;;;;;;7.07;1.77;;;;;;;;;;5021914;28;20105;-78
2024/02/20 12:25:11;;;;;;;11.02;2.13;;;;;;;;;;5020387;28;20413;-78
2024/02/20 12:27:37;;;;;;;7.18;1.75;;;;;;;;;;5024418;28;20049;-79
2024/02/20 12:30:04;;;;;;;9.88;2.05;;;;;;;;;;5022118;28;20026;-78
2024/02/20 12:32:30;;;;;;;8.20;1.50;;;;;;;;;;5021793;28;20018;-78
2024/02/20 12:34:57;;;;;;;4.30;1.42;;;;;;;;;;5014497;28;20021;-78
2024/02/20 12:37:24;;;;;;;4.88;1.48;;;;;;;;;;5017623;28;20113;-78
2024/02/20 12:39:51;;;;;;;10.35;1.77;;;;;;;;;;5019977;28;20053;-79
2024/02/20 12:42:17;;;;;;;7.18;1.83;;;;;;;;;;5022923;28;20025;-77
2024/02/20 12:44:46;;;;;;;3.85;1.20;;;;;;;;;;5035921;28;20022;-78
2024/02/20 12:47:12;;;;;;;12.15;3.42;;;;;;;;;;5038527;28;20045;-78
2024/02/20 12:49:38;;;;;;;4.80;1.67;;;;;;;;;;5028831;28;20013;-77
2024/02/20 12:52:04;;;;;;;12.60;1.88;;;;;;;;;;5022364;28;20380;-78
2024/02/20 12:54:30;;;;;;;4.32;1.38;;;;;;;;;;5022592;28;20014;-79
2024/02/20 12:56:58;;;;;;;5.30;1.23;;;;;;;;;;5028926;28;20034;-78
2024/02/20 12:59:25;;;;;;;4.80;1.27;;;;;;;;;;5033055;28;20022;-79
2024/02/20 13:01:51;;;;;;;7.70;1.25;;;;;;;;;;5021565;28;20033;-78
2024/02/20 13:04:17;;;;;;;5.70;1.42;;;;;;;;;;5028080;28;20010;-77
2024/02/20 13:06:43;;;;;;;4.90;1.67;;;;;;;;;;5021274;28;20578;-79
2024/02/20 13:09:11;;;;;;;3.05;1.00;;;;;;;;;;5024815;28;20030;-78
2024/02/20 13:11:37;;;;;;;5.25;1.30;;;;;;;;;;5021365;28;20033;-78
2024/02/20 13:14:03;;;;;;;4.20;1.10;;;;;;;;;;5026038;28;20022;-79
2024/02/20 13:16:33;;;;;;;3.25;1.10;;;;;;;;;;5025633;28;20018;-79
2024/02/20 13:18:59;;;;;;;4.80;1.20;;;;;;;;;;5015396;28;20097;-79
2024/02/20 13:21:25;;;;;;;4.28;1.38;;;;;;;;;;5022316;28;20033;-78
2024/02/20 13:23:52;;;;;;;2.50;1.38;;;;;;;;;;5027377;28;20026;-78
2024/02/20 13:26:18;;;;;;;4.85;1.60;;;;;;;;;;5033807;28;20161;-79
2024/02/20 13:28:44;;;;;;;6.05;1.50;;;;;;;;;;5028594;28;20045;-79
2024/02/20 13:31:11;;;;;;;4.88;1.48;;;;;;;;;;5025556;28;20010;-78
2024/02/20 13:33:37;;;;;;;6.63;1.52;;;;;;;;;;5029959;28;20064;-78
2024/02/20 13:36:07;;;;;;;7.65;1.42;;;;;;;;;;5046555;28;20052;-78
2024/02/20 13:38:36;;;;;;;4.95;1.30;;;;;;;;;;5033632;28;20018;-78
2024/02/20 13:41:03;;;;;;;8.40;1.70;;;;;;;;;;5031230;28;20021;-78
2024/02/20 13:43:29;;;;;;;5.60;2.13;;;;;;;;;;5027511;28;20429;-79
2024/02/20 13:45:55;;;;;;;7.68;1.85;;;;;;;;;;5045807;28;20033;-79
2024/02/20 13:48:21;;;;;;;6.75;1.98;;;;;;;;;;5019452;28;20026;-78
2024/02/20 13:50:48;;;;;;;10.32;1.63;;;;;;;;;;5042806;28;20018;-77
2024/02/20 13:53:15;;;;;;;9.35;2.00;;;;;;;;;;5034505;28;20018;-78
2024/02/20 13:55:45;;;;;;;5.28;1.70;;;;;;;;;;5034119;28;20030;-78
2024/02/20 13:58:11;;;;;;;4.60;1.45;;;;;;;;;;5030628;28;20052;-78
2024/02/20 14:00:38;;;;;;;9.13;1.70;;;;;;;;;;5041628;28;20025;-78
2024/02/20 14:03:04;;;;;;;6.65;1.40;;;;;;;;;;5027202;28;20412;-78
2024/02/20 14:05:30;;;;;;;6.78;1.83;;;;;;;;;;5029232;28;20025;-79
2024/02/20 14:07:56;;;;;;;6.07;1.60;;;;;;;;;;5033338;28;20022;-80
2024/02/20 14:10:23;;;;;;;8.18;1.58;;;;;;;;;;5047800;28;20060;-79
2024/02/20 14:12:49;;;;;;;6.80;1.60;;;;;;;;;;5036304;28;20037;-77
2024/02/20 14:15:16;;;;;;;4.95;1.80;;;;;;;;;;5038098;28;20034;-77
2024/02/20 14:17:45;;;;;;;6.53;1.38;;;;;;;;;;5043447;28;20101;-78
2024/02/20 14:20:11;;;;;;;10.07;2.05;;;;;;;;;;5023853;28;20080;-78
2024/02/20 14:22:38;;;;;;;7.82;1.80;;;;;;;;;;5046527;28;20025;-78
2024/02/20 14:25:04;;;;;;;3.80;1.50;;;;;;;;;;5045160;28;20030;-77
2024/02/20 14:27:31;;;;;;;4.53;1.58;;;;;;;;;;5038467;28;20026;-78
2024/02/20 14:29:57;;;;;;;8.85;2.60;;;;;;;;;;5039013;28;20022;-78
2024/02/20 14:32:24;;;;;;;4.78;1.55;;;;;;;;;;5023941;28;20077;-79
2024/02/20 14:34:50;;;;;;;7.88;1.85;;;;;;;;;;5026535;28;20026;-78
2024/02/20 14:37:16;;;;;;;10.93;1.83;;;;;;;;;;5042951;28;20100;-79
2024/02/20 14:39:43;;;;;;;4.18;1.15;;;;;;;;;;5041597;28;20030;-78
2024/02/20 14:42:09;;;;;;;6.35;1.92;;;;;;;;;;5033144;28;20041;-78